East Tawas, MI (48730)

12:28 AM EDT on August 01, 2015 (GMT -0400)
Tawas Bay Weather | | Change Station
CLOSE
Current Station
Personal Weather Station
Location: East Tawas, MI
Elevation: 590 ft
Nearby Weather Stations

Elev 590 ft 44.28 °N, 83.48 °W | Updated 2 seconds ago

Partly Cloudy
Partly Cloudy
63.8 °F
Feels Like 63.8 °F
N
0.0
Wind Variable Wind from NW
Gusts 2.0 mph

Today
High -- | Low -- °F
--% Chance of Precip.
Yesterday
High -- | Low -- °F
Precip. -- in
6:20 AM 8:58 PM
Full, 99% visible
Pressure 29.86 in
Visibility 10.0 miles
Clouds Scattered Clouds 7000 ft
Dew Point 57 °F
Humidity 78%
Rainfall 0.00 in
Snow Depth Not available.
UV 0 out of 12
Pollen 7.10 out of 12
Air Quality Not available.
Flu Activity Not available.
METAR KOSC 010414Z AUTO 30005KT 10SM SCT070 16/12 A2986 RMK AO2 T01580126

More Conditions Fewer Conditions

Pressure 29.86 in
Visibility 10.0 miles
Clouds Scattered Clouds 7000 ft
Dew Point 57 °F
Humidity 78%
Rainfall 0.00 in
Snow Depth Not available.
UV 0 out of 12
Pollen 7.10 out of 12
Air Quality Not available.
Flu Activity Not available.
METAR KOSC 010414Z AUTO 30005KT 10SM SCT070 16/12 A2986 RMK AO2 T01580126

More Conditions Fewer Conditions

Nowcast | as of 12:00 am EDT on August 1, 2015

At 1 am...mostly clear. Patchy fog. Temperature 63. West winds 5 mph. At 3 am...mostly clear. Patchy fog. Temperature 60. West winds 5 mph. At 5 am...mostly clear. Patchy fog. Temperature 59. West winds 5 mph. At 7 am...mostly clear. Patchy fog. Temperature 61. West winds 6 mph.

×

10-Day Weather Forecast

×

Almanac

Astronomy

Aug. 01, 2015 Rise Set
Actual Time
Civil Twilight
Nautical Twilight
Astronomical Twilight
Moon
Length of Visible Light
Length of Day
Tomorrow will be .
, % of the Moon is Illuminated

Today's Extremes

State Highs State Lows

Community

WunderPhotos

Upload Photos

1,842,874 photos uploaded!

WunderBlogs® & News

Nearby

Air Quality

  Air Quality AQ Index Pollutant
Not available.

Snow Depth

Station Depth Elevation

Earthquake Activity

City Distance Mag. Time & Date
Minimum magnitude displayed is 2.5.

Coastal Water Temperatures

Place Temperature

Stations

Nearby Weather Stations

Station Location Temp. Windchill Dew Point Humidity Wind Precip. Elev Updated Type